Time;durP1;ratioP1;P1;durP2;ratioP2;P2;SDS_P1;SDS_P2;PMS_P1;PMS_P2;Temp;Humidity;BMP_temperature;BMP_pressure;BME280_temperature;BME280_humidity;BME280_pressure;Samples;Min_cycle;Max_cycle;Signal;HPM_P1;HPM_P2
2022/10/06 00:00:11;;;;;;;17.55;10.35;;;;;;;;;;5053642;28;20212;-57
2022/10/06 00:02:58;;;;;;;14.90;8.07;;;;;;;;;;5054541;28;20638;-57
2022/10/06 00:05:25;;;;;;;9.85;6.18;;;;;;;;;;5054724;28;20214;-58
2022/10/06 00:07:53;;;;;;;15.23;6.80;;;;;;;;;;5055675;28;20219;-57
2022/10/06 00:10:20;;;;;;;9.75;6.78;;;;;;;;;;5055130;28;20215;-57
2022/10/06 00:12:49;;;;;;;12.43;6.30;;;;;;;;;;5054660;28;20235;-56
2022/10/06 00:15:27;;;;;;;11.63;6.65;;;;;;;;;;5054704;28;20258;-56
2022/10/06 00:17:55;;;;;;;10.90;6.60;;;;;;;;;;5054637;28;20200;-56
2022/10/06 00:20:24;;;;;;;10.18;6.85;;;;;;;;;;5054433;28;20202;-56
2022/10/06 00:22:51;;;;;;;12.65;6.38;;;;;;;;;;5054237;28;20204;-56
2022/10/06 00:25:20;;;;;;;10.95;6.45;;;;;;;;;;5054630;28;20219;-56
2022/10/06 00:27:49;;;;;;;12.40;6.47;;;;;;;;;;5054668;28;20258;-57
2022/10/06 00:30:21;;;;;;;8.63;5.60;;;;;;;;;;5053704;28;20200;-57
2022/10/06 00:32:57;;;;;;;11.75;6.70;;;;;;;;;;5057346;28;20212;-57
2022/10/06 00:35:25;;;;;;;8.93;6.13;;;;;;;;;;5057399;28;20203;-56
2022/10/06 00:37:52;;;;;;;13.10;7.85;;;;;;;;;;5058453;28;20226;-55
2022/10/06 00:40:20;;;;;;;12.57;6.57;;;;;;;;;;5057153;28;20200;-56
2022/10/06 00:43:34;;;;;;;9.50;6.07;;;;;;;;;;5057316;28;20540;-56
2022/10/06 00:46:02;;;;;;;10.00;6.32;;;;;;;;;;5027361;28;20215;-58
2022/10/06 00:48:29;;;;;;;16.45;6.68;;;;;;;;;;5057090;28;20212;-57
2022/10/06 00:50:58;;;;;;;11.18;6.47;;;;;;;;;;5057399;28;20204;-57
2022/10/06 00:53:26;;;;;;;12.38;6.38;;;;;;;;;;5057055;28;20216;-56
2022/10/06 00:55:53;;;;;;;11.60;6.57;;;;;;;;;;5056920;28;20216;-58
2022/10/06 00:58:20;;;;;;;9.68;5.85;;;;;;;;;;5056745;28;20286;-57
2022/10/06 01:00:52;;;;;;;9.73;6.28;;;;;;;;;;5058785;28;20262;-57
2022/10/06 01:03:27;;;;;;;10.07;6.05;;;;;;;;;;5057385;28;20208;-57
2022/10/06 01:05:54;;;;;;;12.45;6.13;;;;;;;;;;5057364;28;20203;-56
2022/10/06 01:08:21;;;;;;;9.20;6.10;;;;;;;;;;5057141;28;20218;-56
2022/10/06 01:10:48;;;;;;;9.85;5.93;;;;;;;;;;5056910;28;20265;-58
2022/10/06 01:13:17;;;;;;;9.98;5.53;;;;;;;;;;5056532;28;20565;-57
2022/10/06 01:15:49;;;;;;;8.52;5.93;;;;;;;;;;5057600;28;20200;-58
2022/10/06 01:18:17;;;;;;;11.57;6.55;;;;;;;;;;5040638;28;20261;-57
2022/10/06 01:20:50;;;;;;;8.43;5.70;;;;;;;;;;5056682;28;20204;-57
2022/10/06 01:23:18;;;;;;;10.70;6.07;;;;;;;;;;5039275;28;20207;-57
2022/10/06 01:25:45;;;;;;;10.77;5.53;;;;;;;;;;5022984;28;20211;-57
2022/10/06 01:28:13;;;;;;;11.60;6.22;;;;;;;;;;5055886;28;20204;-55
2022/10/06 01:30:51;;;;;;;11.65;5.80;;;;;;;;;;5039244;28;20207;-57
2022/10/06 01:33:21;;;;;;;10.88;6.65;;;;;;;;;;5019664;28;20228;-57
2022/10/06 01:35:51;;;;;;;10.88;6.07;;;;;;;;;;5035762;28;20201;-57
2022/10/06 01:38:19;;;;;;;9.07;5.53;;;;;;;;;;5019181;28;20213;-56
2022/10/06 01:40:51;;;;;;;7.78;5.68;;;;;;;;;;5019187;28;20694;-57
2022/10/06 01:43:18;;;;;;;8.73;5.55;;;;;;;;;;5034806;28;20200;-56
2022/10/06 01:45:44;;;;;;;9.88;5.47;;;;;;;;;;5018917;28;20209;-58
2022/10/06 01:48:11;;;;;;;11.35;6.10;;;;;;;;;;5035329;28;20521;-57
2022/10/06 01:50:40;;;;;;;11.60;5.75;;;;;;;;;;5018819;28;20201;-56
2022/10/06 01:53:06;;;;;;;12.15;5.97;;;;;;;;;;5018700;28;20306;-57
2022/10/06 01:55:35;;;;;;;10.48;5.97;;;;;;;;;;5035779;28;20208;-58
2022/10/06 01:58:03;;;;;;;10.57;5.70;;;;;;;;;;5018484;28;20687;-57
2022/10/06 02:00:31;;;;;;;9.88;5.90;;;;;;;;;;5018641;28;20205;-58
2022/10/06 02:02:58;;;;;;;10.73;5.65;;;;;;;;;;5018649;28;20205;-57
2022/10/06 02:05:25;;;;;;;13.60;6.55;;;;;;;;;;5055098;28;20207;-57
2022/10/06 02:07:53;;;;;;;11.48;6.05;;;;;;;;;;5055790;28;20204;-57
2022/10/06 02:10:20;;;;;;;9.60;5.63;;;;;;;;;;5055670;28;20658;-57
2022/10/06 02:12:50;;;;;;;8.50;5.55;;;;;;;;;;5056634;28;20231;-56
2022/10/06 02:15:20;;;;;;;10.55;6.47;;;;;;;;;;5055671;28;20526;-58
2022/10/06 02:17:47;;;;;;;9.13;5.72;;;;;;;;;;5056584;28;20215;-59
2022/10/06 02:20:14;;;;;;;9.95;6.20;;;;;;;;;;5055770;28;20199;-57
2022/10/06 02:22:42;;;;;;;10.50;6.40;;;;;;;;;;5055570;28;20214;-56
2022/10/06 02:25:13;;;;;;;8.88;6.03;;;;;;;;;;5055613;28;20211;-58
2022/10/06 02:27:40;;;;;;;8.60;5.68;;;;;;;;;;5055499;28;20200;-57
2022/10/06 02:30:10;;;;;;;10.00;6.05;;;;;;;;;;5055849;28;20200;-57
2022/10/06 02:32:39;;;;;;;10.75;6.18;;;;;;;;;;5038688;28;20539;-57
2022/10/06 02:35:09;;;;;;;10.80;6.53;;;;;;;;;;5055476;28;20200;-57
2022/10/06 02:37:36;;;;;;;10.50;6.30;;;;;;;;;;5055287;28;20296;-57
2022/10/06 02:40:03;;;;;;;10.27;6.28;;;;;;;;;;5056211;28;20270;-59
2022/10/06 02:42:30;;;;;;;14.90;6.13;;;;;;;;;;5055066;28;20643;-58
2022/10/06 02:44:58;;;;;;;13.52;6.07;;;;;;;;;;5055151;28;20311;-58
2022/10/06 02:47:26;;;;;;;9.50;6.13;;;;;;;;;;5055223;28;20538;-58
2022/10/06 02:49:52;;;;;;;11.77;6.28;;;;;;;;;;5055128;28;20211;-56
2022/10/06 02:52:19;;;;;;;11.48;6.20;;;;;;;;;;5055923;28;20195;-57
2022/10/06 02:54:47;;;;;;;13.82;6.57;;;;;;;;;;5054849;28;20323;-56
2022/10/06 02:57:14;;;;;;;9.52;6.90;;;;;;;;;;5056223;28;20200;-56
2022/10/06 02:59:41;;;;;;;8.77;6.10;;;;;;;;;;5055868;28;20331;-56
2022/10/06 03:02:09;;;;;;;12.10;6.65;;;;;;;;;;5054908;28;20588;-57
2022/10/06 03:04:36;;;;;;;15.52;6.85;;;;;;;;;;5054712;28;20208;-56
2022/10/06 03:07:03;;;;;;;8.88;6.10;;;;;;;;;;5054940;28;20200;-57
2022/10/06 03:09:34;;;;;;;9.40;6.22;;;;;;;;;;5055314;28;20192;-57
2022/10/06 03:12:01;;;;;;;11.13;6.78;;;;;;;;;;5054801;28;20208;-57
2022/10/06 03:14:36;;;;;;;11.45;6.90;;;;;;;;;;5054807;28;20215;-57
2022/10/06 03:17:05;;;;;;;14.82;7.35;;;;;;;;;;5054403;28;20658;-57
2022/10/06 03:19:31;;;;;;;10.05;7.15;;;;;;;;;;5054534;28;20288;-57
2022/10/06 03:21:59;;;;;;;11.95;6.90;;;;;;;;;;5054473;28;20227;-56
2022/10/06 03:24:39;;;;;;;14.07;7.20;;;;;;;;;;5040399;28;20265;-57
2022/10/06 03:27:06;;;;;;;13.55;7.00;;;;;;;;;;5051490;28;20203;-58
2022/10/06 03:29:33;;;;;;;12.52;7.10;;;;;;;;;;5038845;28;20291;-58
2022/10/06 03:32:02;;;;;;;15.50;8.18;;;;;;;;;;5034113;28;20266;-58
2022/10/06 03:34:29;;;;;;;12.52;7.70;;;;;;;;;;5034092;28;20225;-58
2022/10/06 03:36:57;;;;;;;10.70;7.70;;;;;;;;;;5034367;28;20197;-56
2022/10/06 03:39:25;;;;;;;15.13;7.85;;;;;;;;;;5052689;28;20202;-58
2022/10/06 03:41:53;;;;;;;13.40;7.85;;;;;;;;;;5075464;28;20199;-57
2022/10/06 03:44:21;;;;;;;15.30;8.00;;;;;;;;;;5074106;28;20699;-56
2022/10/06 03:46:48;;;;;;;14.18;8.60;;;;;;;;;;5066926;28;20206;-58
2022/10/06 03:49:15;;;;;;;12.95;8.77;;;;;;;;;;5071346;28;20214;-57
2022/10/06 03:51:42;;;;;;;13.27;8.52;;;;;;;;;;5074149;28;20203;-57
2022/10/06 03:54:14;;;;;;;18.42;8.65;;;;;;;;;;5073984;28;20293;-57
2022/10/06 03:56:44;;;;;;;13.65;8.80;;;;;;;;;;5058553;28;20207;-59
2022/10/06 03:59:16;;;;;;;16.80;9.00;;;;;;;;;;5048217;28;20227;-59
2022/10/06 04:01:46;;;;;;;19.98;9.80;;;;;;;;;;5053054;28;20223;-58
2022/10/06 04:04:21;;;;;;;13.43;9.07;;;;;;;;;;5052537;28;20231;-56
2022/10/06 04:06:52;;;;;;;17.15;8.63;;;;;;;;;;5052566;28;20227;-56
2022/10/06 04:09:21;;;;;;;14.48;8.48;;;;;;;;;;5052547;28;20282;-56
2022/10/06 04:11:48;;;;;;;11.93;8.07;;;;;;;;;;5052954;28;20228;-58
2022/10/06 04:14:15;;;;;;;15.82;9.05;;;;;;;;;;5052368;28;20239;-58
2022/10/06 04:16:46;;;;;;;13.80;8.40;;;;;;;;;;5052823;28;20220;-57
2022/10/06 04:19:17;;;;;;;13.00;8.07;;;;;;;;;;5051997;28;20681;-57
2022/10/06 04:21:48;;;;;;;13.68;7.93;;;;;;;;;;5052727;28;20266;-58
2022/10/06 04:24:20;;;;;;;13.60;8.18;;;;;;;;;;5050605;28;20673;-58
2022/10/06 04:26:48;;;;;;;11.05;7.60;;;;;;;;;;5052724;28;20227;-58
2022/10/06 04:29:17;;;;;;;11.48;7.93;;;;;;;;;;5052315;28;20231;-57
2022/10/06 04:31:49;;;;;;;13.80;8.50;;;;;;;;;;5034341;28;20220;-56
2022/10/06 04:34:45;;;;;;;16.27;8.65;;;;;;;;;;4997792;28;20378;-58
2022/10/06 04:37:13;;;;;;;19.25;8.27;;;;;;;;;;4994370;28;20217;-57
2022/10/06 04:39:42;;;;;;;13.02;8.15;;;;;;;;;;4978228;28;20648;-57
2022/10/06 04:42:09;;;;;;;14.68;8.80;;;;;;;;;;5009965;28;20248;-60
2022/10/06 04:44:36;;;;;;;17.88;8.90;;;;;;;;;;5006387;28;20755;-59
2022/10/06 04:47:05;;;;;;;20.92;11.32;;;;;;;;;;4994001;28;20297;-58
2022/10/06 04:49:31;;;;;;;13.80;8.85;;;;;;;;;;4992406;28;20221;-59
2022/10/06 04:51:59;;;;;;;14.60;8.75;;;;;;;;;;4992385;28;20221;-58
2022/10/06 04:54:29;;;;;;;14.85;7.97;;;;;;;;;;4993147;28;20762;-58
2022/10/06 04:57:02;;;;;;;13.65;7.78;;;;;;;;;;4994133;28;20353;-56
2022/10/06 05:02:17;;;;;;;15.55;7.80;;;;;;;;;;4994476;28;20632;-58
2022/10/06 05:04:47;;;;;;;14.90;7.28;;;;;;;;;;4991773;28;20308;-57
2022/10/06 05:07:15;;;;;;;11.88;7.05;;;;;;;;;;4993661;28;20213;-61
2022/10/06 05:09:42;;;;;;;14.63;7.13;;;;;;;;;;5010616;28;20279;-56
2022/10/06 05:12:11;;;;;;;13.48;7.25;;;;;;;;;;5043661;28;20220;-58
2022/10/06 05:14:39;;;;;;;12.57;7.22;;;;;;;;;;5050568;28;20236;-58
2022/10/06 05:17:06;;;;;;;10.63;7.05;;;;;;;;;;5036433;28;20207;-56
2022/10/06 05:19:35;;;;;;;15.85;8.73;;;;;;;;;;5055186;28;20204;-57
2022/10/06 05:22:02;;;;;;;17.98;7.85;;;;;;;;;;5055498;28;20546;-56
2022/10/06 05:24:31;;;;;;;11.07;7.57;;;;;;;;;;5056059;28;20208;-57
2022/10/06 05:27:00;;;;;;;14.05;7.57;;;;;;;;;;5057794;28;20208;-56
2022/10/06 05:29:28;;;;;;;14.60;7.95;;;;;;;;;;5055990;28;20192;-58
2022/10/06 05:31:55;;;;;;;17.77;7.50;;;;;;;;;;5055618;28;20219;-57
2022/10/06 05:34:23;;;;;;;11.75;7.68;;;;;;;;;;5056274;28;20299;-56
2022/10/06 05:36:51;;;;;;;11.40;7.20;;;;;;;;;;5040392;28;20204;-57
2022/10/06 05:39:17;;;;;;;12.85;7.90;;;;;;;;;;5056418;28;20204;-56
2022/10/06 05:41:48;;;;;;;10.65;7.35;;;;;;;;;;5056248;28;20604;-56
2022/10/06 05:44:16;;;;;;;15.73;8.07;;;;;;;;;;5056162;28;20257;-56
2022/10/06 05:46:43;;;;;;;11.00;7.20;;;;;;;;;;5056580;28;20287;-57
2022/10/06 05:49:11;;;;;;;12.55;7.45;;;;;;;;;;5056288;28;20538;-56
2022/10/06 05:51:46;;;;;;;13.07;7.47;;;;;;;;;;5056344;28;20199;-56
2022/10/06 05:54:17;;;;;;;10.63;7.10;;;;;;;;;;5055914;28;20677;-57
2022/10/06 05:56:44;;;;;;;11.05;7.45;;;;;;;;;;5056402;28;20188;-57
2022/10/06 05:59:11;;;;;;;9.95;6.65;;;;;;;;;;5056846;28;20231;-56
2022/10/06 06:01:40;;;;;;;13.93;7.90;;;;;;;;;;5057057;28;20199;-53
2022/10/06 06:04:15;;;;;;;14.02;7.47;;;;;;;;;;5055748;28;20207;-58
2022/10/06 06:06:49;;;;;;;10.43;7.00;;;;;;;;;;5055695;28;20507;-57
2022/10/06 06:09:22;;;;;;;15.50;7.10;;;;;;;;;;5055781;28;20627;-57
2022/10/06 06:11:52;;;;;;;13.85;6.53;;;;;;;;;;5055810;28;20654;-57
2022/10/06 06:17:31;;;;;;;13.90;7.22;;;;;;;;;;5055746;28;20204;-55
2022/10/06 06:20:00;;;;;;;17.20;7.50;;;;;;;;;;5055729;28;20203;-55
2022/10/06 06:22:27;;;;;;;13.30;7.25;;;;;;;;;;5055388;28;20219;-56
2022/10/06 06:24:54;;;;;;;12.45;7.05;;;;;;;;;;5056553;28;20645;-56
2022/10/06 06:27:21;;;;;;;9.55;6.53;;;;;;;;;;5055224;28;20204;-58
2022/10/06 06:29:49;;;;;;;10.77;6.55;;;;;;;;;;5055862;28;20242;-56
2022/10/06 06:32:16;;;;;;;14.15;6.28;;;;;;;;;;5056353;28;20208;-55
2022/10/06 06:34:44;;;;;;;13.00;6.53;;;;;;;;;;5055445;28;20270;-57
2022/10/06 06:37:12;;;;;;;10.60;6.45;;;;;;;;;;5055462;28;20203;-58
2022/10/06 06:39:44;;;;;;;9.55;6.13;;;;;;;;;;5055288;28;20192;-55
2022/10/06 06:42:11;;;;;;;14.43;6.57;;;;;;;;;;5055315;28;20208;-56
2022/10/06 06:44:41;;;;;;;9.88;6.78;;;;;;;;;;5055270;28;20207;-56
2022/10/06 06:47:24;;;;;;;14.00;6.53;;;;;;;;;;5055345;28;20204;-57
2022/10/06 06:49:53;;;;;;;10.45;6.65;;;;;;;;;;5055106;28;20196;-57
2022/10/06 06:52:25;;;;;;;12.57;6.00;;;;;;;;;;5054776;28;20208;-57
2022/10/06 06:54:53;;;;;;;10.32;6.40;;;;;;;;;;5055333;28;20255;-57
2022/10/06 06:57:20;;;;;;;8.32;6.13;;;;;;;;;;5055313;28;20291;-58
2022/10/06 06:59:49;;;;;;;12.45;6.50;;;;;;;;;;5055328;28;20219;-56
2022/10/06 07:02:18;;;;;;;9.13;6.50;;;;;;;;;;5054923;28;20291;-57
2022/10/06 07:04:46;;;;;;;9.20;6.32;;;;;;;;;;5037757;28;20250;-57
2022/10/06 07:07:16;;;;;;;11.77;6.20;;;;;;;;;;5054534;28;20270;-55
2022/10/06 07:09:43;;;;;;;12.27;6.38;;;;;;;;;;5055330;28;20211;-57
2022/10/06 07:12:11;;;;;;;9.15;5.97;;;;;;;;;;5054748;28;20196;-57
2022/10/06 07:25:57;;;;;;;11.85;6.75;;;;;;;;;;5040348;28;20204;-56
2022/10/06 07:28:24;;;;;;;9.23;6.22;;;;;;;;;;5054221;28;20662;-57
2022/10/06 07:30:51;;;;;;;15.23;7.53;;;;;;;;;;5054172;28;20507;-57
2022/10/06 07:33:20;;;;;;;11.10;6.72;;;;;;;;;;5054247;28;20211;-56
2022/10/06 07:35:48;;;;;;;10.20;6.78;;;;;;;;;;5054054;28;20227;-57
2022/10/06 07:38:18;;;;;;;11.52;7.03;;;;;;;;;;5054007;28;20211;-57
2022/10/06 07:40:56;;;;;;;9.82;6.65;;;;;;;;;;5054066;28;20302;-57
2022/10/06 07:43:45;;;;;;;18.52;6.72;;;;;;;;;;5053850;28;20662;-57
2022/10/06 07:46:13;;;;;;;12.05;7.40;;;;;;;;;;5054199;28;20247;-57
2022/10/06 07:48:50;;;;;;;20.73;7.30;;;;;;;;;;5053874;28;20257;-56
2022/10/06 07:51:18;;;;;;;11.75;7.47;;;;;;;;;;5054297;28;20207;-57
2022/10/06 07:53:49;;;;;;;8.77;6.63;;;;;;;;;;5054084;28;20238;-56
2022/10/06 07:56:42;;;;;;;13.25;7.30;;;;;;;;;;5053689;28;20215;-57
2022/10/06 07:59:10;;;;;;;8.25;6.88;;;;;;;;;;5055014;28;20246;-56
2022/10/06 08:01:38;;;;;;;12.65;7.78;;;;;;;;;;5054957;28;20200;-56
2022/10/06 08:04:05;;;;;;;10.43;7.63;;;;;;;;;;5054574;28;20215;-57
2022/10/06 08:06:33;;;;;;;17.80;8.23;;;;;;;;;;5054849;28;20203;-58
2022/10/06 08:09:00;;;;;;;10.27;7.80;;;;;;;;;;5053916;28;20287;-56
2022/10/06 08:11:27;;;;;;;12.18;7.22;;;;;;;;;;5053913;28;20199;-56
2022/10/06 08:13:54;;;;;;;11.13;7.60;;;;;;;;;;5054714;28;20196;-56
2022/10/06 08:16:23;;;;;;;10.85;7.03;;;;;;;;;;5054779;28;20697;-55
2022/10/06 08:18:53;;;;;;;10.57;6.57;;;;;;;;;;5054683;28;20204;-57
2022/10/06 08:21:26;;;;;;;12.77;7.13;;;;;;;;;;5054628;28;20200;-56
2022/10/06 08:23:55;;;;;;;13.65;6.97;;;;;;;;;;5054568;28;20196;-57
2022/10/06 08:26:24;;;;;;;12.57;6.95;;;;;;;;;;5054361;28;20649;-55
2022/10/06 08:28:52;;;;;;;12.32;6.30;;;;;;;;;;5054622;28;20204;-57
2022/10/06 08:31:20;;;;;;;10.20;6.53;;;;;;;;;;5054660;28;20211;-57
2022/10/06 08:33:52;;;;;;;9.27;6.28;;;;;;;;;;5054610;28;20208;-56
2022/10/06 08:36:19;;;;;;;9.77;5.75;;;;;;;;;;5054583;28;20227;-55
2022/10/06 08:38:49;;;;;;;9.95;5.88;;;;;;;;;;5054438;28;20279;-58
2022/10/06 08:41:22;;;;;;;10.05;6.25;;;;;;;;;;5054792;28;20219;-57
2022/10/06 08:43:58;;;;;;;12.75;5.65;;;;;;;;;;5054608;28;20623;-56
2022/10/06 08:46:36;;;;;;;10.00;4.93;;;;;;;;;;5054637;28;20196;-57
2022/10/06 08:49:04;;;;;;;10.38;5.10;;;;;;;;;;5053611;28;20668;-56
2022/10/06 08:51:47;;;;;;;7.93;5.30;;;;;;;;;;5053644;28;20204;-57
2022/10/06 08:54:28;;;;;;;8.95;5.82;;;;;;;;;;5057028;28;20282;-57
2022/10/06 08:57:14;;;;;;;8.98;5.72;;;;;;;;;;5058135;28;20211;-57
2022/10/06 08:59:45;;;;;;;10.48;5.75;;;;;;;;;;5057099;28;20678;-56
2022/10/06 09:02:26;;;;;;;8.57;5.60;;;;;;;;;;5057394;28;20261;-56
2022/10/06 09:04:55;;;;;;;9.07;5.88;;;;;;;;;;5058108;28;20200;-56
2022/10/06 09:07:29;;;;;;;10.68;5.50;;;;;;;;;;5057802;28;20204;-56
2022/10/06 09:10:27;;;;;;;11.02;6.40;;;;;;;;;;5057113;28;20249;-57
2022/10/06 09:12:56;;;;;;;6.35;5.05;;;;;;;;;;5057556;28;20708;-56
2022/10/06 09:15:31;;;;;;;13.15;5.63;;;;;;;;;;5057737;28;20677;-56
2022/10/06 09:18:13;;;;;;;10.63;5.47;;;;;;;;;;5056775;28;20641;-56
2022/10/06 09:20:45;;;;;;;10.57;5.75;;;;;;;;;;5058439;28;20211;-57
2022/10/06 09:23:15;;;;;;;8.13;5.53;;;;;;;;;;5056558;28;20637;-56
2022/10/06 09:25:43;;;;;;;11.60;5.00;;;;;;;;;;5056908;28;20231;-57
2022/10/06 09:28:14;;;;;;;7.63;5.32;;;;;;;;;;5057242;28;20639;-57
2022/10/06 09:30:42;;;;;;;11.32;5.50;;;;;;;;;;5057581;28;20219;-56
2022/10/06 09:33:17;;;;;;;10.00;5.30;;;;;;;;;;5057791;28;20228;-56
2022/10/06 09:36:08;;;;;;;7.63;4.90;;;;;;;;;;5056404;28;20292;-56
2022/10/06 09:38:52;;;;;;;8.57;5.25;;;;;;;;;;5056468;28;20246;-56
2022/10/06 09:41:39;;;;;;;8.98;5.38;;;;;;;;;;5057987;28;20218;-56
2022/10/06 09:44:19;;;;;;;14.80;5.13;;;;;;;;;;5056236;28;20714;-56
2022/10/06 09:46:46;;;;;;;13.85;5.32;;;;;;;;;;5057248;28;20562;-57
2022/10/06 09:49:19;;;;;;;8.27;5.25;;;;;;;;;;5057156;28;20207;-57
2022/10/06 09:52:14;;;;;;;7.53;5.30;;;;;;;;;;5057121;28;20208;-56
2022/10/06 09:54:43;;;;;;;7.13;4.85;;;;;;;;;;5057130;28;20235;-56
2022/10/06 09:57:17;;;;;;;6.60;5.18;;;;;;;;;;5057008;28;20211;-56
2022/10/06 09:59:46;;;;;;;8.65;5.40;;;;;;;;;;5056039;28;20223;-56
2022/10/06 10:02:36;;;;;;;8.80;5.00;;;;;;;;;;5056953;28;20200;-56
2022/10/06 10:05:08;;;;;;;7.82;4.93;;;;;;;;;;5055859;28;20212;-57
2022/10/06 10:07:35;;;;;;;10.15;4.80;;;;;;;;;;5057168;28;20251;-57
2022/10/06 10:10:20;;;;;;;5.78;4.72;;;;;;;;;;5056851;28;20204;-55
2022/10/06 10:12:52;;;;;;;7.10;4.50;;;;;;;;;;5056972;28;20211;-56
2022/10/06 10:15:19;;;;;;;9.07;5.00;;;;;;;;;;5057141;28;20208;-55
2022/10/06 10:17:55;;;;;;;10.60;4.60;;;;;;;;;;5056670;28;20202;-56
2022/10/06 10:21:03;;;;;;;7.32;4.55;;;;;;;;;;5055881;28;20196;-56
2022/10/06 10:23:34;;;;;;;10.00;4.82;;;;;;;;;;5034644;28;20219;-55
2022/10/06 10:26:45;;;;;;;7.25;4.32;;;;;;;;;;5018691;28;20217;-56
2022/10/06 10:29:21;;;;;;;5.35;4.03;;;;;;;;;;4956378;29;20214;-56
2022/10/06 10:32:02;;;;;;;6.78;4.20;;;;;;;;;;4956924;29;20634;-55
2022/10/06 10:34:58;;;;;;;5.13;3.50;;;;;;;;;;4956617;29;20203;-57
2022/10/06 10:37:34;;;;;;;5.40;4.18;;;;;;;;;;4940840;29;20662;-56
2022/10/06 10:40:08;;;;;;;6.38;4.00;;;;;;;;;;4940515;29;20293;-57
2022/10/06 10:42:44;;;;;;;9.32;4.22;;;;;;;;;;4956527;29;20214;-56
2022/10/06 10:45:23;;;;;;;11.00;4.43;;;;;;;;;;4956358;29;20235;-56
2022/10/06 10:47:51;;;;;;;8.57;4.20;;;;;;;;;;4956119;29;20218;-56
2022/10/06 10:50:36;;;;;;;8.88;4.28;;;;;;;;;;4956526;29;20298;-56
2022/10/06 10:53:12;;;;;;;8.07;4.03;;;;;;;;;;4940292;29;20650;-58
2022/10/06 10:55:42;;;;;;;6.45;3.53;;;;;;;;;;4924622;29;20282;-56
2022/10/06 10:58:13;;;;;;;7.40;3.70;;;;;;;;;;4960275;28;20236;-56
2022/10/06 11:00:41;;;;;;;11.65;4.10;;;;;;;;;;4978668;28;20301;-56
2022/10/06 11:03:10;;;;;;;6.22;3.40;;;;;;;;;;4994821;28;20224;-57
2022/10/06 11:05:48;;;;;;;7.35;3.53;;;;;;;;;;5014794;28;20211;-56
2022/10/06 11:08:28;;;;;;;6.90;3.53;;;;;;;;;;5055457;28;20219;-57
2022/10/06 11:11:01;;;;;;;4.88;2.92;;;;;;;;;;5055765;28;20188;-57
2022/10/06 11:13:37;;;;;;;7.75;3.70;;;;;;;;;;5054965;28;20192;-57
2022/10/06 11:16:20;;;;;;;6.93;3.25;;;;;;;;;;5053646;28;20219;-58
2022/10/06 11:19:03;;;;;;;6.90;3.15;;;;;;;;;;5055422;28;20532;-55
2022/10/06 11:21:42;;;;;;;5.28;3.55;;;;;;;;;;5056161;28;20586;-56
2022/10/06 11:24:30;;;;;;;5.80;3.40;;;;;;;;;;5054395;28;20208;-57
2022/10/06 11:27:19;;;;;;;8.55;3.60;;;;;;;;;;5055083;28;20645;-56
2022/10/06 11:30:05;;;;;;;7.35;3.22;;;;;;;;;;5055460;28;20284;-56
2022/10/06 11:33:07;;;;;;;6.57;3.30;;;;;;;;;;5055354;28;20192;-57
2022/10/06 11:35:37;;;;;;;5.43;3.20;;;;;;;;;;5054063;28;20310;-58
2022/10/06 11:38:23;;;;;;;10.20;3.40;;;;;;;;;;5054053;28;20207;-57
2022/10/06 11:41:12;;;;;;;8.13;3.53;;;;;;;;;;5054443;28;20200;-55
2022/10/06 11:43:45;;;;;;;4.25;3.30;;;;;;;;;;5054270;28;20269;-57
2022/10/06 11:46:11;;;;;;;6.20;3.75;;;;;;;;;;5055014;28;20291;-57
2022/10/06 11:48:39;;;;;;;8.32;3.00;;;;;;;;;;5055073;28;20291;-56
2022/10/06 11:51:24;;;;;;;4.30;3.10;;;;;;;;;;5053446;28;20203;-58
2022/10/06 11:53:51;;;;;;;6.13;3.45;;;;;;;;;;5050681;28;20218;-56
2022/10/06 11:56:18;;;;;;;6.22;3.38;;;;;;;;;;5052255;28;20576;-58
2022/10/06 11:58:54;;;;;;;6.93;3.72;;;;;;;;;;5051878;28;20228;-59
2022/10/06 12:01:32;;;;;;;8.48;3.42;;;;;;;;;;5050354;28;20218;-58
2022/10/06 12:04:12;;;;;;;6.05;3.58;;;;;;;;;;5052928;28;20184;-58
2022/10/06 12:06:44;;;;;;;7.05;3.80;;;;;;;;;;5053334;28;20258;-59
2022/10/06 12:09:39;;;;;;;9.57;4.35;;;;;;;;;;5052957;28;20188;-58
2022/10/06 12:12:07;;;;;;;5.93;3.80;;;;;;;;;;5047275;28;20197;-60
2022/10/06 12:14:43;;;;;;;6.15;3.25;;;;;;;;;;5050454;28;20228;-59
2022/10/06 12:17:49;;;;;;;7.82;3.33;;;;;;;;;;5051595;28;20200;-58
2022/10/06 12:20:21;;;;;;;4.63;3.30;;;;;;;;;;5052395;28;20279;-58
2022/10/06 12:22:56;;;;;;;5.85;3.63;;;;;;;;;;5052740;28;20195;-58
2022/10/06 12:25:31;;;;;;;6.15;3.30;;;;;;;;;;5052298;28;20192;-59
2022/10/06 12:28:20;;;;;;;6.90;2.95;;;;;;;;;;5053448;28;20184;-58
2022/10/06 12:30:53;;;;;;;5.90;3.00;;;;;;;;;;5056181;28;20192;-58
2022/10/06 12:33:35;;;;;;;4.55;3.15;;;;;;;;;;5055884;28;20203;-59
2022/10/06 12:36:03;;;;;;;8.63;3.53;;;;;;;;;;5057068;28;20212;-59
2022/10/06 12:38:31;;;;;;;8.10;3.40;;;;;;;;;;5051617;28;20224;-59
2022/10/06 12:41:00;;;;;;;4.53;2.95;;;;;;;;;;5053624;28;20215;-58
2022/10/06 12:43:35;;;;;;;6.60;3.17;;;;;;;;;;5054183;28;20281;-58
2022/10/06 12:46:11;;;;;;;5.07;3.45;;;;;;;;;;5043576;28;20224;-58
2022/10/06 12:49:06;;;;;;;8.82;3.58;;;;;;;;;;5042211;28;20228;-59
2022/10/06 12:51:37;;;;;;;5.20;3.25;;;;;;;;;;5048226;28;20216;-59
2022/10/06 12:54:27;;;;;;;6.25;3.60;;;;;;;;;;5046900;28;20224;-60
2022/10/06 12:56:57;;;;;;;5.55;2.95;;;;;;;;;;5053793;28;20344;-59
2022/10/06 12:59:24;;;;;;;6.72;3.00;;;;;;;;;;5052998;28;20538;-59
2022/10/06 13:01:55;;;;;;;3.97;3.15;;;;;;;;;;5055969;28;20572;-59
2022/10/06 13:04:43;;;;;;;6.72;3.53;;;;;;;;;;5051935;28;20224;-58
2022/10/06 13:07:30;;;;;;;7.70;3.17;;;;;;;;;;5054499;28;20227;-60
2022/10/06 13:10:12;;;;;;;4.05;3.08;;;;;;;;;;5054005;28;20219;-59
2022/10/06 13:12:40;;;;;;;5.18;3.28;;;;;;;;;;5052832;28;20896;-60
2022/10/06 13:15:23;;;;;;;5.63;3.40;;;;;;;;;;5054007;28;20231;-59
2022/10/06 13:17:57;;;;;;;7.00;3.35;;;;;;;;;;5054558;28;20211;-58
2022/10/06 13:20:41;;;;;;;6.57;3.40;;;;;;;;;;5052182;28;20223;-59
2022/10/06 13:23:08;;;;;;;4.97;3.10;;;;;;;;;;5054009;28;20220;-62
2022/10/06 13:25:47;;;;;;;6.60;3.60;;;;;;;;;;5054739;28;20228;-58
2022/10/06 13:28:20;;;;;;;8.43;3.72;;;;;;;;;;5052988;28;20289;-59
2022/10/06 13:30:52;;;;;;;4.90;3.20;;;;;;;;;;5054651;28;20223;-59
2022/10/06 13:33:19;;;;;;;5.55;3.50;;;;;;;;;;5055323;28;20216;-59
2022/10/06 13:35:49;;;;;;;5.43;3.10;;;;;;;;;;5052510;28;20327;-59
2022/10/06 13:38:17;;;;;;;4.10;2.92;;;;;;;;;;5055973;28;20287;-59
2022/10/06 13:40:44;;;;;;;4.18;3.17;;;;;;;;;;5063923;28;20231;-59
2022/10/06 13:43:17;;;;;;;4.65;3.05;;;;;;;;;;5056070;28;20235;-60
2022/10/06 13:45:45;;;;;;;9.27;3.67;;;;;;;;;;5043087;28;20319;-58
2022/10/06 13:48:16;;;;;;;7.95;3.70;;;;;;;;;;5053034;28;20242;-59
2022/10/06 13:50:47;;;;;;;6.45;3.17;;;;;;;;;;5042425;28;20243;-59
2022/10/06 13:53:29;;;;;;;11.57;3.40;;;;;;;;;;5035192;28;20240;-60
2022/10/06 13:55:57;;;;;;;4.85;3.10;;;;;;;;;;5037011;28;20271;-58
2022/10/06 13:58:26;;;;;;;4.78;3.53;;;;;;;;;;5043234;28;20270;-60
2022/10/06 14:00:58;;;;;;;4.10;3.35;;;;;;;;;;5053211;28;20313;-59
2022/10/06 14:03:34;;;;;;;8.80;3.92;;;;;;;;;;5055355;28;20677;-59
2022/10/06 14:06:16;;;;;;;5.50;3.50;;;;;;;;;;5055884;28;20219;-60
2022/10/06 14:08:55;;;;;;;8.27;3.53;;;;;;;;;;5054955;28;20240;-52
2022/10/06 14:11:26;;;;;;;6.25;3.40;;;;;;;;;;5055523;28;20220;-59
2022/10/06 14:14:13;;;;;;;7.97;3.53;;;;;;;;;;5054940;28;20246;-54
2022/10/06 14:16:47;;;;;;;7.10;3.35;;;;;;;;;;5054080;28;20235;-53
2022/10/06 14:19:37;;;;;;;7.60;3.65;;;;;;;;;;5054962;28;20307;-67
2022/10/06 14:22:05;;;;;;;5.53;3.33;;;;;;;;;;5055021;28;20228;-63
2022/10/06 14:24:36;;;;;;;5.50;3.35;;;;;;;;;;5054112;28;20222;-63
2022/10/06 14:27:05;;;;;;;8.13;3.25;;;;;;;;;;5054632;28;20307;-64
2022/10/06 14:29:33;;;;;;;7.00;3.60;;;;;;;;;;5055695;28;20572;-56
2022/10/06 14:32:07;;;;;;;6.82;3.08;;;;;;;;;;5055529;28;20311;-49
2022/10/06 14:34:34;;;;;;;9.18;3.75;;;;;;;;;;5055379;28;20223;-61
2022/10/06 14:37:01;;;;;;;7.18;3.63;;;;;;;;;;5054796;28;20326;-59
2022/10/06 14:39:28;;;;;;;9.93;3.80;;;;;;;;;;5055340;28;20580;-59
2022/10/06 14:41:55;;;;;;;8.80;4.00;;;;;;;;;;5055443;28;20239;-60
2022/10/06 14:44:22;;;;;;;8.77;4.05;;;;;;;;;;5055322;28;20258;-61
2022/10/06 14:46:49;;;;;;;6.80;3.67;;;;;;;;;;5054739;28;20301;-67
2022/10/06 14:49:17;;;;;;;6.85;4.30;;;;;;;;;;5055221;28;20216;-67
2022/10/06 14:51:44;;;;;;;7.32;4.10;;;;;;;;;;5044487;28;20305;-71
2022/10/06 14:54:12;;;;;;;7.35;4.40;;;;;;;;;;5048903;28;20699;-63
2022/10/06 14:56:41;;;;;;;7.57;4.00;;;;;;;;;;5052552;28;20216;-63
2022/10/06 14:59:13;;;;;;;7.97;3.67;;;;;;;;;;5052763;28;20220;-64
2022/10/06 15:01:41;;;;;;;5.82;3.95;;;;;;;;;;5054892;28;20188;-64
2022/10/06 15:04:13;;;;;;;12.68;4.03;;;;;;;;;;5053495;28;20196;-61
2022/10/06 15:09:27;;;;;;;7.25;4.05;;;;;;;;;;5048283;28;20270;-66
2022/10/06 15:11:58;;;;;;;9.15;4.43;;;;;;;;;;5035268;28;20243;-66
2022/10/06 15:14:27;;;;;;;7.35;4.30;;;;;;;;;;5035123;28;20204;-66
2022/10/06 15:16:57;;;;;;;7.03;4.25;;;;;;;;;;5035103;28;20315;-67
2022/10/06 15:19:25;;;;;;;7.78;4.13;;;;;;;;;;5035712;28;20201;-66
2022/10/06 15:21:52;;;;;;;7.35;4.15;;;;;;;;;;5036160;28;20200;-65
2022/10/06 15:24:19;;;;;;;5.32;4.40;;;;;;;;;;5035435;28;20206;-66